Terminal Aerodrome Forecast
Issued by NWS

Current Version | Previous Version | Text Only | Print | Product List | Glossary Off
Versions: 1 2 3 4 5 6 7 8 9 10 11 12 13 14 15 16 17 18 19 20 21 22 23

000
FTUS44 KSJT 210900 AAA
TAFJCT
TAF AMD
KJCT 210910Z 2109/2206 18006KT P6SM BKN015
     FM211100 19004KT 5SM BR OVC009
     FM211500 21004KT P6SM BKN012
     FM211900 21008KT P6SM SCT025=

USA.gov is the U.S. government's official web portal to all federal, state and local government web resources and services.